Date,TemperatureHighF,TemperatureAvgF,TemperatureLowF,DewpointHighF,DewpointAvgF,DewpointLowF,HumidityHigh,HumidityAvg,HumidityLow,PressureMaxIn,PressureMinIn,WindSpeedMaxMPH,WindSpeedAvgMPH,GustSpeedMaxMPH,PrecipitationSumIn
2013-3-1,28.0,23.4,17.0,19.0,16.1,12.0,81,73,64,30.36,30.21,10,6,14,0.00
2013-3-2,28.0,17.6,5.0,14.0,8.8,2.0,93,70,42,30.37,30.20,6,1,10,0.00
2013-3-3,31.0,24.2,16.0,15.0,11.4,9.0,73,58,39,30.21,29.97,13,7,19,0.00
2013-3-4,27.0,24.1,22.0,21.0,18.6,14.0,93,80,59,30.03,29.93,19,11,25,0.00
2013-3-5,29.0,24.3,19.0,25.0,21.9,16.0,94,90,80,30.31,29.97,13,6,17,0.01
2013-3-6,29.0,21.4,11.0,19.0,16.4,7.0,92,81,66,30.43,30.31,17,4,20,0.01
2013-3-7,29.0,16.4,0.0,20.0,11.1,-3.0,91,80,68,30.41,30.30,14,4,19,0.00
2013-3-8,36.0,27.3,15.0,29.0,22.5,13.0,92,82,71,30.34,30.08,12,6,18,0.01
2013-3-9,37.0,35.1,33.0,35.0,33.1,28.0,97,93,79,30.08,29.67,12,6,18,0.77
2013-3-10,34.0,32.3,29.0,33.0,28.9,25.0,97,88,82,29.93,29.76,14,8,26,0.12
2013-3-11,29.0,26.3,20.0,25.0,21.7,16.0,86,83,73,29.86,29.75,17,10,21,0.01
2013-3-12,26.0,22.5,19.0,20.0,16.8,14.0,87,78,65,30.21,29.84,25,14,32,0.00
2013-3-13,27.0,18.9,10.0,19.0,13.4,7.0,89,80,65,30.42,30.21,15,5,22,0.00
2013-3-14,40.0,29.9,23.0,27.0,23.8,18.0,93,78,57,30.28,30.02,11,4,14,0.03
2013-3-15,33.0,30.1,26.0,31.0,27.8,23.0,94,91,87,30.02,29.80,11,5,15,0.01
2013-3-16,26.0,20.0,13.0,25.0,14.7,6.0,94,80,64,30.26,29.88,14,9,20,0.01
2013-3-17,28.0,17.2,8.0,21.0,8.8,1.0,79,69,60,30.29,29.88,16,9,23,0.00
2013-3-18,30.0,20.8,11.0,28.0,16.8,7.0,94,85,77,29.90,29.62,34,20,48,0.00
2013-3-19,19.0,10.9,5.0,7.0,2.8,0.0,83,70,47,30.25,29.85,26,18,36,0.00
2013-3-20,17.0,10.5,5.0,6.0,1.1,-3.0,73,65,57,30.28,30.16,22,15,33,0.00
2013-3-21,24.0,12.8,-2.0,11.0,4.3,-5.0,87,70,53,30.18,30.07,7,2,9,0.00
2013-3-22,34.0,18.3,2.0,17.0,9.9,0.0,90,71,45,30.13,30.06,6,1,10,0.00
2013-3-23,33.0,24.0,13.0,22.0,16.9,9.0,90,75,54,30.17,30.10,9,3,12,0.00
2013-3-24,32.0,27.6,23.0,25.0,22.0,20.0,91,80,62,30.12,29.98,9,4,15,0.00
2013-3-25,34.0,28.1,21.0,24.0,19.3,15.0,84,70,56,30.23,30.04,15,9,20,0.00
2013-3-26,34.0,25.1,19.0,24.0,19.6,15.0,87,79,64,30.31,30.23,11,5,15,0.00
2013-3-27,40.0,28.0,15.0,25.0,18.2,13.0,94,70,42,30.36,30.30,5,1,10,0.00
2013-3-28,40.0,30.7,18.0,28.0,22.5,16.0,93,73,54,30.35,30.27,7,3,12,0.00
2013-3-29,48.0,38.9,30.0,39.0,31.7,25.0,87,76,61,30.28,30.04,9,4,15,0.00
2013-3-30,47.0,41.4,33.0,43.0,36.1,-99.9,95,85,70,30.04,29.83,14,8,20,0.05
2013-3-31,36.0,32.1,23.0,31.0,25.5,15.0,96,78,53,30.09,29.80,30,15,39,0.01